Time;durP1;ratioP1;P1;durP2;ratioP2;P2;SDS_P1;SDS_P2;PMS_P1;PMS_P2;Temp;Humidity;BMP_temperature;BMP_pressure;BME280_temperature;BME280_humidity;BME280_pressure;Samples;Min_cycle;Max_cycle;Signal;HPM_P1;HPM_P2
2023/12/14 00:01:17;;;;;;;53.40;25.90;;;;;;;4.66;100.00;97919.35;107728;1308;22254;-51
2023/12/14 00:03:45;;;;;;;48.20;25.10;;;;;;;4.63;100.00;97918.09;107764;1308;22292;-51
2023/12/14 00:06:11;;;;;;;52.00;26.30;;;;;;;4.59;100.00;97924.23;107750;1308;22468;-53
2023/12/14 00:08:37;;;;;;;52.50;26.90;;;;;;;4.57;100.00;97926.59;107755;1308;22458;-56
2023/12/14 00:11:06;;;;;;;54.10;25.50;;;;;;;4.57;100.00;97927.95;107753;1308;22220;-53
2023/12/14 00:13:32;;;;;;;53.40;26.60;;;;;;;4.57;100.00;97928.48;107756;1308;22466;-54
2023/12/14 00:15:57;;;;;;;50.70;25.60;;;;;;;4.54;100.00;97929.83;107749;1308;22685;-53
2023/12/14 00:18:23;;;;;;;57.40;27.60;;;;;;;4.52;100.00;97928.56;107745;1308;22461;-53
2023/12/14 00:20:48;;;;;;;53.50;26.60;;;;;;;4.46;100.00;97934.10;107727;1308;22415;-57
2023/12/14 00:23:14;;;;;;;54.60;26.00;;;;;;;4.43;100.00;97937.02;107744;1308;22338;-50
2023/12/14 00:25:39;;;;;;;49.90;24.50;;;;;;;4.45;100.00;97937.11;107750;1308;22401;-52
2023/12/14 00:28:05;;;;;;;54.10;25.10;;;;;;;4.43;100.00;97943.61;107757;1308;22243;-54
2023/12/14 00:30:30;;;;;;;59.40;26.40;;;;;;;4.34;100.00;97948.06;107741;1308;22280;-52
2023/12/14 00:32:55;;;;;;;59.90;25.90;;;;;;;4.31;100.00;97949.64;107761;1308;22285;-57
2023/12/14 00:35:21;;;;;;;58.10;25.20;;;;;;;4.29;100.00;97956.34;107751;1308;22283;-52
2023/12/14 00:37:46;;;;;;;54.80;26.30;;;;;;;4.30;100.00;97957.98;107733;1308;23004;-55
2023/12/14 00:40:12;;;;;;;61.40;25.80;;;;;;;4.29;100.00;97960.30;107748;1308;22476;-51
2023/12/14 00:42:37;;;;;;;58.70;27.30;;;;;;;4.29;100.00;97964.27;107786;1295;22419;-54
2023/12/14 00:45:03;;;;;;;53.90;27.30;;;;;;;4.29;100.00;97966.54;107736;1308;22220;-56
2023/12/14 00:47:28;;;;;;;53.90;26.10;;;;;;;4.24;100.00;97968.34;107737;1305;23099;-52
2023/12/14 00:49:54;;;;;;;59.20;25.00;;;;;;;4.20;100.00;97971.13;107727;1308;23150;-54
2023/12/14 00:52:19;;;;;;;57.90;26.50;;;;;;;4.16;100.00;97974.81;107745;1308;22294;-52
2023/12/14 00:54:44;;;;;;;58.00;25.10;;;;;;;4.15;100.00;97979.91;107741;1308;22413;-58
2023/12/14 00:57:10;;;;;;;54.70;25.00;;;;;;;4.10;100.00;97975.99;107740;1308;22387;-54
2023/12/14 00:59:35;;;;;;;59.60;27.00;;;;;;;4.07;100.00;97980.15;107751;1308;24258;-57
2023/12/14 01:02:00;;;;;;;60.00;26.90;;;;;;;3.98;100.00;97984.40;107791;1308;23252;-51
2023/12/14 01:04:26;;;;;;;56.30;25.30;;;;;;;4.00;100.00;97987.60;107761;1308;23049;-55
2023/12/14 01:06:51;;;;;;;50.70;25.70;;;;;;;4.01;100.00;97988.60;107755;1308;22929;-49
2023/12/14 01:09:17;;;;;;;58.10;25.40;;;;;;;4.04;100.00;97989.80;107773;1308;22234;-52
2023/12/14 01:11:42;;;;;;;59.60;27.00;;;;;;;4.01;100.00;97992.55;107762;1308;22264;-58
2023/12/14 01:14:07;;;;;;;56.20;26.50;;;;;;;4.02;100.00;97991.10;107749;1308;22346;-59
2023/12/14 01:16:33;;;;;;;60.90;26.60;;;;;;;4.06;100.00;97995.28;107774;1308;22246;-54
2023/12/14 01:18:58;;;;;;;58.70;26.30;;;;;;;4.07;100.00;97997.45;107740;1308;22289;-54
2023/12/14 01:21:24;;;;;;;55.80;26.30;;;;;;;4.10;100.00;97995.27;107596;1308;22460;-51
2023/12/14 01:23:49;;;;;;;53.20;26.00;;;;;;;4.09;100.00;97997.89;107723;1308;23257;-55
2023/12/14 01:26:14;;;;;;;49.90;23.80;;;;;;;4.03;100.00;97996.64;107750;1308;22435;-54
2023/12/14 01:28:40;;;;;;;44.70;23.80;;;;;;;3.90;100.00;97997.09;107740;1308;22502;-50
2023/12/14 01:31:05;;;;;;;43.60;22.60;;;;;;;3.92;100.00;98000.65;107690;1308;22883;-48
2023/12/14 01:33:31;;;;;;;48.10;25.80;;;;;;;3.93;100.00;97995.95;107780;1307;23227;-57
2023/12/14 01:35:56;;;;;;;52.80;27.70;;;;;;;3.94;100.00;97995.86;107848;1308;22268;-54
2023/12/14 01:38:21;;;;;;;46.40;24.50;;;;;;;3.91;100.00;97997.25;107852;1308;22419;-57
2023/12/14 01:40:47;;;;;;;51.40;25.20;;;;;;;3.84;100.00;97995.67;107827;1307;23253;-51
2023/12/14 01:43:12;;;;;;;44.60;24.00;;;;;;;3.80;100.00;97992.72;107852;1307;22212;-55
2023/12/14 01:45:38;;;;;;;47.20;24.80;;;;;;;3.80;100.00;97995.84;107867;1307;22392;-54
2023/12/14 01:48:06;;;;;;;40.50;22.00;;;;;;;3.83;100.00;97996.06;107839;1307;22975;-55
2023/12/14 01:50:32;;;;;;;38.90;20.60;;;;;;;3.83;100.00;97998.44;107866;1308;22260;-57
2023/12/14 01:52:57;;;;;;;40.10;21.00;;;;;;;3.86;100.00;97995.75;107534;1308;22641;-56
2023/12/14 01:55:22;;;;;;;48.20;23.80;;;;;;;3.81;100.00;97992.69;107871;1307;22594;-56
2023/12/14 01:57:48;;;;;;;49.30;22.70;;;;;;;3.79;100.00;97993.95;107853;1307;22230;-50
2023/12/14 02:00:29;;;;;;;46.20;22.90;;;;;;;3.80;100.00;97992.91;107850;1301;23519;-61
2023/12/14 02:02:54;;;;;;;44.60;22.10;;;;;;;3.84;100.00;97987.33;107781;1293;23328;-53
2023/12/14 02:05:20;;;;;;;38.80;19.80;;;;;;;3.89;100.00;97992.13;107729;1308;22258;-56
2023/12/14 02:07:45;;;;;;;36.40;20.00;;;;;;;3.93;100.00;97994.38;107754;1307;22415;-55
2023/12/14 02:10:10;;;;;;;36.50;18.80;;;;;;;3.94;100.00;97995.73;107725;1308;22249;-57
2023/12/14 02:12:36;;;;;;;32.80;17.70;;;;;;;3.91;100.00;97993.05;107727;1308;23036;-51
2023/12/14 02:15:01;;;;;;;33.10;16.70;;;;;;;3.90;100.00;97993.98;107740;1308;22724;-48
2023/12/14 02:17:26;;;;;;;33.10;16.00;;;;;;;3.90;100.00;97990.19;107744;1308;22415;-60
2023/12/14 02:19:52;;;;;;;32.80;17.40;;;;;;;3.89;100.00;97992.67;107736;1308;23054;-49
2023/12/14 02:22:17;;;;;;;30.30;16.90;;;;;;;3.89;100.00;97993.36;107734;1308;22404;-54
2023/12/14 02:24:43;;;;;;;30.20;16.40;;;;;;;3.90;100.00;97996.43;107750;1308;22876;-57
2023/12/14 02:27:08;;;;;;;30.40;16.80;;;;;;;3.92;100.00;97997.86;107731;1308;22199;-57
2023/12/14 02:29:33;;;;;;;28.90;16.10;;;;;;;3.90;100.00;97998.11;107738;1308;23065;-53
2023/12/14 02:31:59;;;;;;;23.50;14.10;;;;;;;3.91;100.00;97998.29;107739;1308;22227;-52
2023/12/14 02:34:27;;;;;;;25.60;13.50;;;;;;;3.92;100.00;98001.70;107763;1308;22373;-55
2023/12/14 02:36:53;;;;;;;28.30;13.50;;;;;;;3.91;100.00;98000.18;107726;1308;22928;-49
2023/12/14 02:39:18;;;;;;;24.30;12.20;;;;;;;3.90;100.00;98001.30;107730;1308;22236;-52
2023/12/14 02:41:44;;;;;;;20.70;12.60;;;;;;;3.92;100.00;98003.95;107747;1308;22938;-58
2023/12/14 02:44:09;;;;;;;22.10;12.70;;;;;;;3.92;100.00;98005.49;107747;1308;22231;-53
2023/12/14 02:46:34;;;;;;;22.50;13.30;;;;;;;3.93;100.00;98005.64;107747;1308;22234;-55
2023/12/14 02:50:32;;;;;;;20.80;11.90;;;;;;;3.98;100.00;98012.13;106929;1309;557493;-52
2023/12/14 02:52:57;;;;;;;19.60;11.40;;;;;;;3.92;100.00;98017.48;107234;1314;23303;-55
2023/12/14 02:55:22;;;;;;;19.80;11.80;;;;;;;3.91;100.00;98022.02;107243;1314;22306;-54
2023/12/14 02:57:48;;;;;;;17.40;10.80;;;;;;;3.94;100.00;98022.23;107213;1314;22295;-57
2023/12/14 03:00:13;;;;;;;19.20;10.50;;;;;;;3.96;100.00;98023.54;107252;1314;22272;-54
2023/12/14 03:02:39;;;;;;;16.00;10.10;;;;;;;3.96;100.00;98024.20;107090;1312;166709;-54
2023/12/14 03:05:05;;;;;;;17.40;11.40;;;;;;;3.90;100.00;98025.00;107427;1312;22853;-51
2023/12/14 03:07:30;;;;;;;17.90;10.40;;;;;;;3.93;100.00;98029.38;107407;1311;22348;-54
2023/12/14 03:09:55;;;;;;;18.80;11.10;;;;;;;3.96;100.00;98032.20;107414;1312;23204;-48
2023/12/14 03:12:21;;;;;;;16.20;10.30;;;;;;;3.98;100.00;98032.09;107415;1312;22858;-56
2023/12/14 03:14:46;;;;;;;16.50;10.10;;;;;;;3.96;100.00;98035.84;107520;1310;22330;-53
2023/12/14 03:17:12;;;;;;;15.20;9.70;;;;;;;3.90;100.00;98033.02;107526;1310;22253;-57
2023/12/14 03:19:41;;;;;;;16.50;9.70;;;;;;;3.89;100.00;98037.20;107552;1310;22962;-57
2023/12/14 03:22:07;;;;;;;19.60;10.00;;;;;;;3.89;100.00;98038.91;107528;1310;22533;-48
2023/12/14 03:24:32;;;;;;;15.50;10.00;;;;;;;3.92;100.00;98041.39;107549;1310;22970;-52
2023/12/14 03:26:58;;;;;;;22.00;12.30;;;;;;;3.91;100.00;98045.25;107542;1310;22287;-56
2023/12/14 03:29:23;;;;;;;32.50;15.60;;;;;;;3.82;100.00;98048.96;107517;1311;22272;-50
2023/12/14 03:31:48;;;;;;;18.40;10.70;;;;;;;3.86;100.00;98049.48;107521;1310;22244;-53
2023/12/14 03:34:14;;;;;;;23.60;12.30;;;;;;;3.89;100.00;98053.69;107543;1310;22486;-52
2023/12/14 03:36:39;;;;;;;16.00;10.40;;;;;;;3.90;100.00;98053.63;107515;1310;24498;-55
2023/12/14 03:39:05;;;;;;;16.80;10.80;;;;;;;3.91;100.00;98055.48;107531;1310;22523;-54
2023/12/14 03:41:31;;;;;;;17.60;10.60;;;;;;;3.89;100.00;98059.94;107538;1310;22205;-49
2023/12/14 03:43:57;;;;;;;15.70;10.00;;;;;;;3.90;100.00;98064.02;107527;1310;23001;-55
2023/12/14 03:46:22;;;;;;;18.20;10.70;;;;;;;3.89;100.00;98063.06;107544;1310;22359;-51
2023/12/14 03:48:47;;;;;;;18.80;10.70;;;;;;;3.89;100.00;98061.98;107584;1310;22231;-56
2023/12/14 03:51:13;;;;;;;14.80;8.80;;;;;;;3.92;100.00;98068.95;107655;1310;22339;-50
2023/12/14 03:53:39;;;;;;;17.70;9.40;;;;;;;3.94;100.00;98069.41;107700;1310;22324;-54
2023/12/14 03:56:05;;;;;;;13.80;9.50;;;;;;;3.94;100.00;98073.40;107694;1310;22897;-54
2023/12/14 03:58:30;;;;;;;19.40;10.10;;;;;;;3.92;100.00;98075.40;107690;1309;22246;-53
2023/12/14 04:00:56;;;;;;;14.70;9.60;;;;;;;3.92;100.00;98077.12;107671;1310;23053;-53
2023/12/14 04:03:21;;;;;;;13.20;8.90;;;;;;;3.95;100.00;98080.60;107528;1303;22154;-51
2023/12/14 04:05:47;;;;;;;14.50;9.00;;;;;;;3.95;100.00;98075.22;107475;1311;22527;-58
2023/12/14 04:08:12;;;;;;;13.20;8.70;;;;;;;3.94;100.00;98082.58;107482;1311;23112;-52
2023/12/14 04:10:37;;;;;;;12.40;8.30;;;;;;;3.92;100.00;98088.73;107482;1311;22260;-53
2023/12/14 04:13:03;;;;;;;14.00;8.80;;;;;;;3.93;100.00;98091.63;107493;1311;22266;-49
2023/12/14 04:15:28;;;;;;;16.20;9.00;;;;;;;3.91;100.00;98094.36;107464;1311;22266;-52
2023/12/14 04:17:54;;;;;;;14.10;8.70;;;;;;;3.89;100.00;98092.52;107474;1311;22452;-54
2023/12/14 04:20:19;;;;;;;17.30;9.30;;;;;;;3.90;100.00;98096.12;107476;1311;22483;-56
2023/12/14 04:22:45;;;;;;;15.90;9.40;;;;;;;3.92;100.00;98095.32;107475;1311;22962;-56
2023/12/14 04:25:11;;;;;;;14.70;8.50;;;;;;;3.93;100.00;98099.92;107496;1311;22447;-56
2023/12/14 04:27:36;;;;;;;13.90;9.40;;;;;;;3.91;100.00;98101.60;107483;1311;22453;-56
2023/12/14 04:30:04;;;;;;;15.70;9.40;;;;;;;3.91;100.00;98107.15;107456;1311;22907;-54
2023/12/14 04:32:29;;;;;;;18.60;10.20;;;;;;;3.93;100.00;98111.58;107475;1311;23342;-56
2023/12/14 04:34:55;;;;;;;16.30;10.70;;;;;;;3.96;100.00;98119.44;107468;1311;22494;-50
2023/12/14 04:37:20;;;;;;;16.90;10.80;;;;;;;3.93;100.00;98122.66;107469;1311;22355;-52
2023/12/14 04:39:46;;;;;;;17.20;9.80;;;;;;;3.90;100.00;98121.94;107486;1311;22444;-53
2023/12/14 04:42:11;;;;;;;20.00;10.00;;;;;;;3.92;100.00;98124.99;107475;1311;22597;-56
2023/12/14 04:44:36;;;;;;;18.70;11.10;;;;;;;3.94;100.00;98130.79;107479;1311;22990;-57
2023/12/14 04:47:02;;;;;;;18.50;10.90;;;;;;;3.97;100.00;98136.36;107468;1311;22249;-56
2023/12/14 04:49:27;;;;;;;19.30;11.00;;;;;;;3.97;100.00;98136.01;107441;1311;23251;-54
2023/12/14 04:51:52;;;;;;;18.00;11.20;;;;;;;3.95;100.00;98138.00;107462;1311;22543;-51
2023/12/14 04:54:18;;;;;;;19.70;10.70;;;;;;;3.96;100.00;98141.27;107488;1311;23274;-50
2023/12/14 04:56:46;;;;;;;17.60;10.90;;;;;;;3.94;100.00;98143.94;107466;1311;22304;-58
2023/12/14 04:59:12;;;;;;;19.60;11.50;;;;;;;3.92;100.00;98148.91;107489;1311;22379;-54
2023/12/14 05:01:37;;;;;;;18.00;11.60;;;;;;;3.89;100.00;98148.70;107456;1311;22992;-52
2023/12/14 05:04:02;;;;;;;27.30;14.50;;;;;;;3.88;100.00;98155.48;107439;1311;23080;-54
2023/12/14 05:06:28;;;;;;;20.40;12.00;;;;;;;3.88;100.00;98155.17;107479;1311;22241;-55
2023/12/14 05:08:54;;;;;;;18.80;12.20;;;;;;;3.89;100.00;98156.88;107475;1311;22289;-54
2023/12/14 05:11:19;;;;;;;18.70;11.40;;;;;;;3.86;100.00;98159.41;107472;1311;22333;-54
2023/12/14 05:13:45;;;;;;;21.00;12.40;;;;;;;3.88;100.00;98163.67;107474;1311;22446;-57
2023/12/14 05:16:14;;;;;;;20.30;12.60;;;;;;;3.89;100.00;98167.95;107542;1310;23193;-52
2023/12/14 05:18:40;;;;;;;20.10;12.80;;;;;;;3.88;100.00;98170.59;107548;1310;23274;-56
2023/12/14 05:21:05;;;;;;;21.50;12.70;;;;;;;3.90;100.00;98175.38;107507;1310;22962;-56
2023/12/14 05:23:30;;;;;;;21.80;12.60;;;;;;;3.87;100.00;98176.69;107558;1310;22448;-52
2023/12/14 05:25:56;;;;;;;17.80;11.50;;;;;;;3.79;100.00;98183.48;107622;1310;22466;-56
2023/12/14 05:28:22;;;;;;;22.70;12.70;;;;;;;3.81;100.00;98183.55;107600;1310;23118;-54
2023/12/14 05:30:47;;;;;;;21.20;13.10;;;;;;;3.83;100.00;98183.77;107289;1310;22449;-53
2023/12/14 05:33:13;;;;;;;23.30;13.90;;;;;;;3.85;100.00;98190.48;107599;1310;22253;-57
2023/12/14 05:35:38;;;;;;;23.20;13.80;;;;;;;3.86;100.00;98192.70;107603;1310;22333;-52
2023/12/14 05:38:04;;;;;;;21.70;14.50;;;;;;;3.89;100.00;98193.28;107591;1310;22279;-54
2023/12/14 05:40:29;;;;;;;23.60;13.30;;;;;;;3.91;100.00;98195.43;107583;1310;23274;-52
2023/12/14 05:42:54;;;;;;;24.10;13.90;;;;;;;3.95;100.00;98194.36;107624;1309;23035;-51
2023/12/14 05:45:20;;;;;;;25.60;14.30;;;;;;;3.99;100.00;98198.00;107613;1310;22587;-56
2023/12/14 05:47:45;;;;;;;29.70;15.90;;;;;;;3.98;100.00;98200.13;107588;1310;22455;-58
2023/12/14 05:50:12;;;;;;;27.80;15.10;;;;;;;3.96;100.00;98203.35;107579;1310;22716;-54
2023/12/14 05:52:38;;;;;;;24.40;14.20;;;;;;;3.94;100.00;98204.98;107630;1310;22455;-59
2023/12/14 05:55:04;;;;;;;24.30;15.10;;;;;;;3.90;100.00;98205.70;107616;1310;22285;-49
2023/12/14 05:57:30;;;;;;;24.80;14.80;;;;;;;3.86;100.00;98210.91;107620;1310;22430;-56
2023/12/14 05:59:55;;;;;;;25.70;14.60;;;;;;;3.87;100.00;98213.12;107616;1310;22293;-55
2023/12/14 06:02:20;;;;;;;24.00;14.40;;;;;;;3.89;100.00;98214.23;107602;1310;23369;-47
2023/12/14 06:04:46;;;;;;;24.50;14.60;;;;;;;3.89;100.00;98218.71;107599;1309;23550;-50
2023/12/14 06:07:14;;;;;;;26.50;15.60;;;;;;;3.89;100.00;98220.48;107589;1310;22282;-50
2023/12/14 06:09:40;;;;;;;27.10;14.90;;;;;;;3.87;100.00;98221.81;107610;1310;22423;-56
2023/12/14 06:12:05;;;;;;;23.90;14.70;;;;;;;3.87;100.00;98225.77;107596;1310;22514;-50
2023/12/14 06:14:31;;;;;;;23.60;14.20;;;;;;;3.89;100.00;98228.65;107588;1309;22447;-56
2023/12/14 06:16:56;;;;;;;24.70;14.30;;;;;;;3.93;100.00;98230.19;107609;1310;22668;-55
2023/12/14 06:19:22;;;;;;;26.80;15.90;;;;;;;3.93;100.00;98236.77;107600;1310;22244;-54
2023/12/14 06:21:48;;;;;;;25.40;14.80;;;;;;;3.85;100.00;98240.08;107587;1310;22249;-57
2023/12/14 06:24:13;;;;;;;24.50;14.80;;;;;;;3.81;100.00;98240.09;107611;1310;22439;-52
2023/12/14 06:26:43;;;;;;;25.30;14.90;;;;;;;3.81;100.00;98244.23;107595;1310;22449;-52
2023/12/14 06:29:12;;;;;;;27.00;15.60;;;;;;;3.84;100.00;98245.98;107627;1309;22259;-51
2023/12/14 06:31:38;;;;;;;25.30;14.20;;;;;;;3.88;100.00;98247.58;107594;1310;22572;-54
2023/12/14 06:34:04;;;;;;;24.90;14.40;;;;;;;3.84;100.00;98252.63;107606;1310;22275;-54
2023/12/14 06:36:30;;;;;;;23.90;15.00;;;;;;;3.81;100.00;98253.05;107605;1310;22251;-53
2023/12/14 06:38:56;;;;;;;30.30;15.80;;;;;;;3.82;100.00;98252.66;107613;1310;22278;-57
2023/12/14 06:41:22;;;;;;;26.80;16.10;;;;;;;3.76;100.00;98258.51;107617;1310;22242;-54
2023/12/14 06:43:48;;;;;;;30.40;15.90;;;;;;;3.73;100.00;98269.70;107599;1310;22263;-52
2023/12/14 06:46:14;;;;;;;30.20;17.00;;;;;;;3.76;100.00;98279.63;107617;1310;22422;-54
2023/12/14 06:48:39;;;;;;;34.30;17.40;;;;;;;3.61;100.00;98286.04;107599;1310;22422;-50
2023/12/14 06:51:05;;;;;;;35.30;17.60;;;;;;;3.52;100.00;98290.40;107610;1310;22351;-50
2023/12/14 06:53:30;;;;;;;29.00;16.80;;;;;;;3.53;100.00;98290.00;107592;1310;22256;-59
2023/12/14 06:55:55;;;;;;;32.00;17.60;;;;;;;3.54;100.00;98297.24;107601;1310;22546;-54
2023/12/14 06:58:21;;;;;;;31.10;18.10;;;;;;;3.56;100.00;98296.44;107583;1310;23158;-58
2023/12/14 07:00:47;;;;;;;35.50;19.60;;;;;;;3.61;100.00;98302.30;107593;1310;22344;-54
2023/12/14 07:03:12;;;;;;;40.00;20.70;;;;;;;3.57;100.00;98309.39;107608;1310;22284;-56
2023/12/14 07:05:38;;;;;;;29.20;17.00;;;;;;;3.57;100.00;98309.92;107650;1310;22447;-50
2023/12/14 07:08:04;;;;;;;37.90;18.60;;;;;;;3.54;100.00;98312.49;107634;1310;23183;-54
2023/12/14 07:10:29;;;;;;;27.50;16.10;;;;;;;3.51;100.00;98314.70;107627;1309;22517;-49
2023/12/14 07:12:55;;;;;;;23.90;15.00;;;;;;;3.51;100.00;98320.92;107604;1310;22419;-55
2023/12/14 07:15:20;;;;;;;29.30;15.70;;;;;;;3.55;100.00;98324.24;107597;1310;22482;-53
2023/12/14 07:17:46;;;;;;;29.80;16.30;;;;;;;3.56;100.00;98329.05;107584;1310;22262;-52
2023/12/14 07:20:12;;;;;;;35.30;17.20;;;;;;;3.60;100.00;98327.13;107603;1310;22511;-53
2023/12/14 07:22:37;;;;;;;32.30;17.40;;;;;;;3.64;100.00;98326.79;107880;1307;22238;-53
2023/12/14 07:25:03;;;;;;;33.20;17.90;;;;;;;3.70;100.00;98327.75;107877;1307;22493;-58
2023/12/14 07:27:29;;;;;;;38.50;18.40;;;;;;;3.69;100.00;98329.01;107673;1307;22266;-56
2023/12/14 07:29:55;;;;;;;27.80;16.20;;;;;;;3.69;100.00;98328.69;107883;1307;23278;-53
2023/12/14 07:32:21;;;;;;;28.10;16.00;;;;;;;3.60;100.00;98333.55;107918;1307;22600;-53
2023/12/14 07:34:46;;;;;;;25.80;14.90;;;;;;;3.57;100.00;98338.03;107901;1307;22261;-51
2023/12/14 07:37:12;;;;;;;27.40;16.00;;;;;;;3.49;100.00;98338.52;107915;1307;22441;-50
2023/12/14 07:39:37;;;;;;;28.40;16.10;;;;;;;3.48;100.00;98344.62;107912;1307;23000;-58
2023/12/14 07:42:03;;;;;;;27.20;15.00;;;;;;;3.31;100.00;98347.41;107903;1307;22411;-54
2023/12/14 07:44:29;;;;;;;26.10;14.90;;;;;;;3.33;100.00;98350.27;107895;1307;22693;-55
2023/12/14 07:46:56;;;;;;;30.50;16.50;;;;;;;3.26;100.00;98351.59;107892;1307;22406;-53
2023/12/14 07:49:23;;;;;;;30.50;14.50;;;;;;;3.22;100.00;98355.55;107937;1307;22494;-53
2023/12/14 07:51:49;;;;;;;23.90;14.20;;;;;;;3.18;100.00;98359.89;107909;1307;22245;-52
2023/12/14 07:54:15;;;;;;;25.10;13.70;;;;;;;3.24;100.00;98359.62;107898;1307;22901;-51
2023/12/14 07:56:40;;;;;;;21.40;13.80;;;;;;;3.29;100.00;98362.73;107919;1307;22294;-57
2023/12/14 07:59:07;;;;;;;22.90;13.50;;;;;;;3.30;100.00;98359.77;107922;1307;22414;-51
2023/12/14 08:01:33;;;;;;;23.80;14.50;;;;;;;3.25;100.00;98359.77;107900;1307;22298;-57
2023/12/14 08:03:59;;;;;;;23.40;14.10;;;;;;;3.20;100.00;98363.24;107918;1307;22591;-55
2023/12/14 08:06:25;;;;;;;26.50;14.40;;;;;;;3.20;100.00;98365.67;107922;1307;22908;-49
2023/12/14 08:08:50;;;;;;;22.20;13.40;;;;;;;3.23;100.00;98371.11;107889;1307;22421;-51
2023/12/14 08:11:15;;;;;;;28.40;16.20;;;;;;;3.24;100.00;98376.09;107892;1307;22961;-56
2023/12/14 08:13:41;;;;;;;30.80;19.00;;;;;;;3.27;100.00;98382.03;107899;1307;22377;-47
2023/12/14 08:16:08;;;;;;;32.00;18.20;;;;;;;3.27;100.00;98387.05;107894;1307;22431;-50
2023/12/14 08:18:33;;;;;;;31.70;17.40;;;;;;;3.32;100.00;98387.88;107917;1307;22421;-52
2023/12/14 08:20:59;;;;;;;31.70;17.90;;;;;;;3.33;100.00;98393.41;107890;1307;22297;-54
2023/12/14 08:23:27;;;;;;;31.10;18.10;;;;;;;3.34;100.00;98394.56;107883;1307;22256;-52
2023/12/14 08:25:56;;;;;;;29.90;16.70;;;;;;;3.26;100.00;98398.52;107921;1307;22434;-51
2023/12/14 08:28:25;;;;;;;25.80;15.10;;;;;;;3.22;100.00;98399.89;107686;1307;23182;-52
2023/12/14 08:30:51;;;;;;;23.20;14.10;;;;;;;3.21;100.00;98399.08;107927;1307;22407;-57
2023/12/14 08:33:17;;;;;;;19.90;12.70;;;;;;;3.10;100.00;98406.24;107883;1307;22393;-52
2023/12/14 08:35:43;;;;;;;22.60;12.20;;;;;;;3.09;100.00;98410.98;107896;1307;22261;-53
2023/12/14 08:38:09;;;;;;;20.60;13.50;;;;;;;3.12;100.00;98416.08;107887;1307;22716;-49
2023/12/14 08:40:34;;;;;;;22.60;14.00;;;;;;;3.16;100.00;98420.21;107895;1307;23135;-55
2023/12/14 08:43:00;;;;;;;22.20;14.10;;;;;;;3.07;100.00;98427.67;107867;1307;23010;-55
2023/12/14 08:45:25;;;;;;;22.50;14.40;;;;;;;3.11;100.00;98429.25;107918;1307;22206;-55
2023/12/14 08:47:50;;;;;;;24.10;16.10;;;;;;;3.17;100.00;98430.61;107885;1307;22415;-56
2023/12/14 08:50:16;;;;;;;25.90;14.30;;;;;;;3.23;100.00;98437.94;107885;1307;22282;-57
2023/12/14 08:52:41;;;;;;;28.00;15.90;;;;;;;3.31;100.00;98442.02;107875;1307;23049;-57
2023/12/14 08:55:08;;;;;;;21.30;13.60;;;;;;;3.38;100.00;98448.11;107906;1307;22307;-54
2023/12/14 08:57:34;;;;;;;21.80;14.70;;;;;;;3.39;100.00;98453.12;107917;1307;23290;-50
2023/12/14 09:00:00;;;;;;;21.70;14.10;;;;;;;3.34;100.00;98455.91;107922;1307;22424;-59
2023/12/14 09:02:26;;;;;;;24.80;13.80;;;;;;;3.24;100.00;98457.87;107896;1307;22230;-60
2023/12/14 09:04:51;;;;;;;23.10;13.00;;;;;;;3.14;100.00;98461.67;107904;1307;22423;-58
2023/12/14 09:07:17;;;;;;;33.10;21.20;;;;;;;3.01;100.00;98462.69;107901;1307;22679;-54
2023/12/14 09:09:42;;;;;;;35.20;17.10;;;;;;;3.11;100.00;98469.60;107915;1307;22245;-57
2023/12/14 09:12:08;;;;;;;36.80;19.10;;;;;;;3.18;100.00;98473.14;107899;1307;23217;-56
2023/12/14 09:14:33;;;;;;;36.80;17.70;;;;;;;3.24;100.00;98475.88;107918;1307;22256;-56
2023/12/14 09:16:58;;;;;;;32.40;18.00;;;;;;;3.32;100.00;98481.11;107878;1307;22240;-58
2023/12/14 09:19:24;;;;;;;48.10;22.30;;;;;;;3.39;100.00;98477.88;107908;1307;22232;-56
2023/12/14 09:21:49;;;;;;;45.70;21.60;;;;;;;3.45;100.00;98484.41;107902;1307;22243;-51
2023/12/14 09:24:15;;;;;;;30.40;16.70;;;;;;;3.46;100.00;98489.23;107883;1307;22254;-56
2023/12/14 09:26:40;;;;;;;30.70;17.80;;;;;;;3.21;100.00;98489.50;107900;1307;22969;-52
2023/12/14 09:29:06;;;;;;;32.00;17.60;;;;;;;3.22;100.00;98489.95;107896;1307;22229;-55
2023/12/14 09:31:32;;;;;;;33.90;19.00;;;;;;;3.13;100.00;98494.33;107907;1307;22264;-55
2023/12/14 09:33:57;;;;;;;33.80;18.30;;;;;;;3.02;100.00;98493.83;107934;1307;22493;-55
2023/12/14 09:36:23;;;;;;;27.50;16.10;;;;;;;3.01;100.00;98499.95;107902;1307;22256;-58
2023/12/14 09:38:49;;;;;;;25.30;15.50;;;;;;;2.99;100.00;98499.83;107911;1307;22940;-53
2023/12/14 09:41:14;;;;;;;27.10;14.90;;;;;;;3.00;100.00;98498.25;107898;1307;22297;-60
2023/12/14 09:43:40;;;;;;;41.00;18.50;;;;;;;2.99;100.00;98501.05;107927;1307;22312;-55
2023/12/14 09:46:07;;;;;;;36.50;18.60;;;;;;;3.00;100.00;98507.42;107925;1292;22363;-56
2023/12/14 09:48:33;;;;;;;44.70;18.50;;;;;;;3.00;100.00;98510.02;107889;1307;22437;-55
2023/12/14 09:50:58;;;;;;;50.20;20.50;;;;;;;3.01;100.00;98507.39;107895;1307;22410;-52
2023/12/14 09:53:24;;;;;;;30.50;16.90;;;;;;;3.06;100.00;98513.59;107895;1307;22231;-55
2023/12/14 09:55:49;;;;;;;33.20;16.70;;;;;;;2.96;100.00;98516.23;107912;1307;23459;-55
2023/12/14 09:58:14;;;;;;;27.90;14.90;;;;;;;2.99;100.00;98520.28;107889;1307;23129;-56
2023/12/14 10:00:40;;;;;;;26.70;14.90;;;;;;;3.01;100.00;98520.56;107879;1307;22193;-56
2023/12/14 10:03:27;;;;;;;26.50;15.60;;;;;;;2.91;100.00;98522.29;107917;1307;22414;-52
2023/12/14 10:05:53;;;;;;;25.90;15.90;;;;;;;2.76;100.00;98520.08;107899;1307;22430;-55
2023/12/14 10:08:19;;;;;;;23.00;14.70;;;;;;;2.75;100.00;98523.91;107837;1307;23020;-52
2023/12/14 10:10:49;;;;;;;26.70;16.40;;;;;;;2.69;100.00;98523.27;107865;1296;22464;-55
2023/12/14 10:13:15;;;;;;;30.10;16.00;;;;;;;2.69;100.00;98524.99;107889;1307;22264;-55
2023/12/14 10:15:46;;;;;;;33.30;18.00;;;;;;;2.63;100.00;98528.14;107896;1307;22261;-53
2023/12/14 10:18:23;;;;;;;30.60;17.60;;;;;;;2.73;100.00;98532.98;107926;1307;23167;-58
2023/12/14 10:20:48;;;;;;;37.90;18.00;;;;;;;2.82;100.00;98538.02;107880;1307;22494;-55
2023/12/14 10:23:14;;;;;;;32.70;17.30;;;;;;;2.90;100.00;98539.12;107857;1307;22270;-53
2023/12/14 10:25:39;;;;;;;38.90;17.90;;;;;;;2.88;100.00;98536.94;107876;1307;22254;-52
2023/12/14 10:28:04;;;;;;;26.70;15.20;;;;;;;2.94;100.00;98540.20;107875;1307;23023;-55
2023/12/14 10:30:30;;;;;;;27.00;15.40;;;;;;;2.97;100.00;98544.05;107902;1307;23000;-53
2023/12/14 10:32:57;;;;;;;26.10;15.40;;;;;;;2.96;100.00;98543.41;107908;1307;22914;-55
2023/12/14 10:35:22;;;;;;;28.80;16.00;;;;;;;2.96;100.00;98545.84;107910;1307;22465;-50
2023/12/14 10:37:52;;;;;;;39.10;17.40;;;;;;;3.00;100.00;98549.52;107879;1307;22318;-57
2023/12/14 10:40:17;;;;;;;61.30;18.90;;;;;;;3.11;100.00;98550.67;107888;1307;22562;-50
2023/12/14 10:42:44;;;;;;;29.60;14.40;;;;;;;3.10;100.00;98555.22;107881;1307;23057;-52
2023/12/14 10:45:16;;;;;;;38.10;16.30;;;;;;;3.08;100.00;98557.36;107903;1307;22856;-55
2023/12/14 10:47:45;;;;;;;30.20;15.90;;;;;;;3.06;100.00;98564.70;107870;1307;22260;-56
2023/12/14 10:50:11;;;;;;;29.20;15.60;;;;;;;3.04;100.00;98567.00;107869;1307;22823;-54
2023/12/14 10:52:41;;;;;;;25.70;15.00;;;;;;;3.11;100.00;98570.06;107882;1307;22551;-53
2023/12/14 10:55:15;;;;;;;30.10;17.00;;;;;;;3.13;100.00;98568.95;107880;1307;23513;-50
2023/12/14 10:57:41;;;;;;;32.00;16.20;;;;;;;3.08;100.00;98571.02;107882;1305;22498;-55
2023/12/14 11:00:08;;;;;;;33.30;17.50;;;;;;;3.12;100.00;98572.98;107909;1294;22523;-50
2023/12/14 11:02:44;;;;;;;37.00;18.10;;;;;;;3.10;100.00;98576.49;107883;1307;22494;-56
2023/12/14 11:05:12;;;;;;;29.70;16.50;;;;;;;3.06;100.00;98574.22;107804;1306;22272;-51